Time;durP1;ratioP1;P1;durP2;ratioP2;P2;SDS_P1;SDS_P2;PMS_P1;PMS_P2;Temp;Humidity;BMP_temperature;BMP_pressure;BME280_temperature;BME280_humidity;BME280_pressure;Samples;Min_cycle;Max_cycle;Signal;HPM_P1;HPM_P2
2022/03/09 00:01:04;;;;;;;39.17;24.55;;;;;;;0.00;78.26;100837.34;5007105;28;20426;-73
2022/03/09 00:03:29;;;;;;;37.78;21.17;;;;;;;0.09;77.29;100830.03;5008149;28;20509;-73
2022/03/09 00:05:55;;;;;;;34.35;21.40;;;;;;;0.07;77.17;100820.47;5009336;28;20440;-73
2022/03/09 00:08:20;;;;;;;34.78;21.13;;;;;;;0.15;77.21;100825.19;5007181;28;20050;-74
2022/03/09 00:10:47;;;;;;;34.53;23.52;;;;;;;0.24;76.59;100829.91;5008184;28;20045;-74
2022/03/09 00:13:13;;;;;;;32.65;21.33;;;;;;;0.17;77.26;100827.84;5008139;28;20076;-73
2022/03/09 00:15:38;;;;;;;44.72;33.85;;;;;;;0.24;77.08;100826.47;5009300;28;20393;-73
2022/03/09 00:18:04;;;;;;;43.72;24.35;;;;;;;0.12;77.58;100825.06;5009277;28;20481;-73
2022/03/09 00:20:29;;;;;;;41.53;23.67;;;;;;;0.11;77.48;100822.38;5007376;28;20540;-74
2022/03/09 00:22:54;;;;;;;40.50;23.70;;;;;;;0.17;77.61;100818.41;5009720;28;20046;-73
2022/03/09 00:25:20;;;;;;;38.70;24.45;;;;;;;0.29;77.19;100814.66;5009705;28;20033;-73
2022/03/09 00:27:45;;;;;;;41.92;25.50;;;;;;;0.47;77.62;100825.84;5009140;28;20038;-74
2022/03/09 00:30:11;;;;;;;36.45;22.80;;;;;;;0.50;77.66;100823.41;5009356;28;20080;-75
2022/03/09 00:32:40;;;;;;;35.13;23.58;;;;;;;0.18;77.90;100824.44;5004476;28;20131;-74
2022/03/09 00:35:07;;;;;;;34.97;22.77;;;;;;;0.20;78.11;100823.72;5008740;28;20065;-73
2022/03/09 00:37:33;;;;;;;37.45;25.15;;;;;;;0.17;77.97;100831.31;5007195;28;20050;-73
2022/03/09 00:39:59;;;;;;;36.72;24.92;;;;;;;0.28;77.84;100825.78;5007769;28;20053;-73
2022/03/09 00:42:24;;;;;;;38.28;24.63;;;;;;;0.36;77.66;100812.44;5007783;28;20469;-73
2022/03/09 00:44:49;;;;;;;34.13;22.70;;;;;;;0.20;78.21;100813.38;5007029;28;20421;-74
2022/03/09 00:47:15;;;;;;;39.22;25.80;;;;;;;0.23;78.25;100822.09;5007469;28;20477;-73
2022/03/09 00:49:40;;;;;;;34.17;22.17;;;;;;;-0.15;79.15;100822.00;5006857;28;20045;-73
2022/03/09 00:52:06;;;;;;;39.38;25.50;;;;;;;0.08;79.21;100812.81;5008073;28;20042;-72
2022/03/09 00:54:32;;;;;;;38.28;25.40;;;;;;;-0.06;79.01;100806.97;5007594;28;20124;-73
2022/03/09 00:56:57;;;;;;;33.50;22.50;;;;;;;0.09;79.43;100827.47;5008500;28;20060;-73
2022/03/09 00:59:22;;;;;;;44.58;26.02;;;;;;;0.07;78.91;100810.13;5006935;28;20081;-73
2022/03/09 01:01:48;;;;;;;38.58;23.55;;;;;;;0.11;78.79;100824.97;4986823;28;20056;-73
2022/03/09 01:04:13;;;;;;;42.05;27.35;;;;;;;0.10;79.07;100818.94;5008559;28;20041;-73
2022/03/09 01:06:39;;;;;;;36.72;25.83;;;;;;;0.06;79.01;100806.69;5006171;28;20609;-73
2022/03/09 01:09:04;;;;;;;37.58;23.85;;;;;;;0.08;78.98;100823.13;5005832;28;20026;-73
2022/03/09 01:11:30;;;;;;;35.88;22.52;;;;;;;0.21;78.74;100819.44;5007505;28;20066;-73
2022/03/09 01:13:55;;;;;;;38.42;25.55;;;;;;;0.14;78.65;100823.44;5005524;28;20108;-73
2022/03/09 01:16:21;;;;;;;43.42;21.75;;;;;;;0.14;78.85;100820.84;5007867;28;20052;-73
2022/03/09 01:18:46;;;;;;;33.50;24.30;;;;;;;0.27;79.17;100827.47;5008055;28;20037;-73
2022/03/09 01:21:12;;;;;;;29.52;20.17;;;;;;;0.63;78.01;100818.03;5007920;28;20030;-72
2022/03/09 01:23:37;;;;;;;33.15;21.48;;;;;;;0.60;77.96;100809.22;5005622;28;20042;-73
2022/03/09 01:26:03;;;;;;;37.92;22.20;;;;;;;0.54;78.03;100785.69;5008184;28;20581;-73
2022/03/09 01:28:29;;;;;;;40.78;25.23;;;;;;;0.36;78.24;100814.13;5005759;28;20042;-72
2022/03/09 01:30:55;;;;;;;34.20;21.88;;;;;;;0.39;78.59;100817.72;5006684;28;20045;-72
2022/03/09 01:33:20;;;;;;;49.88;35.88;;;;;;;0.51;78.41;100816.53;5008105;28;20084;-73
2022/03/09 01:35:46;;;;;;;39.70;22.73;;;;;;;0.61;77.99;100816.19;5007285;28;20108;-73
2022/03/09 01:38:11;;;;;;;41.25;26.88;;;;;;;-0.38;80.08;100815.69;5006734;28;20435;-73
2022/03/09 01:40:37;;;;;;;35.47;24.02;;;;;;;-0.12;80.26;100811.81;5006121;28;20507;-74
2022/03/09 01:43:02;;;;;;;38.25;25.23;;;;;;;0.22;79.31;100808.31;5001536;28;20543;-73
2022/03/09 01:45:28;;;;;;;32.72;23.02;;;;;;;0.38;78.80;100812.50;5005566;28;20041;-72
2022/03/09 01:47:53;;;;;;;34.40;21.95;;;;;;;0.38;78.96;100803.06;5008468;28;20470;-73
2022/03/09 01:50:19;;;;;;;33.97;24.13;;;;;;;0.44;78.56;100799.00;5003022;28;20038;-73
2022/03/09 01:52:44;;;;;;;47.22;36.70;;;;;;;0.16;79.09;100793.44;5006620;28;20390;-73
2022/03/09 01:55:12;;;;;;;38.08;24.45;;;;;;;0.35;79.26;100804.59;5003563;28;20038;-73
2022/03/09 01:57:38;;;;;;;47.33;36.28;;;;;;;0.40;79.60;100798.00;5005776;28;20080;-72
2022/03/09 02:00:04;;;;;;;40.63;24.20;;;;;;;0.59;78.56;100790.28;5002126;28;21063;-73
2022/03/09 02:02:30;;;;;;;35.60;24.80;;;;;;;0.50;78.12;100787.28;5007119;28;20124;-73
2022/03/09 02:04:55;;;;;;;33.20;21.85;;;;;;;0.43;78.01;100785.22;5005053;28;20116;-72
2022/03/09 02:09:41;;;;;;;40.60;23.70;;;;;;;-0.16;79.58;100789.28;5005946;28;20050;-73
2022/03/09 02:10:08;;;;;;;41.58;24.35;;;;;;;-0.52;81.01;100791.78;5006165;28;20506;-73
2022/03/09 02:12:33;;;;;;;31.63;22.00;;;;;;;-0.33;80.73;100774.66;5007052;28;20116;-73
2022/03/09 02:15:00;;;;;;;35.15;24.50;;;;;;;-0.20;80.55;100781.31;5005123;28;20133;-73
2022/03/09 02:17:27;;;;;;;35.35;22.55;;;;;;;-0.02;80.33;100784.81;5004593;28;20034;-72
2022/03/09 02:19:54;;;;;;;33.47;21.77;;;;;;;0.02;80.45;100772.91;5004303;28;20049;-72
2022/03/09 02:22:40;;;;;;;33.03;23.63;;;;;;;0.19;80.34;100790.13;5005285;28;20050;-72
2022/03/09 02:25:13;;;;;;;36.47;22.27;;;;;;;0.19;79.67;100784.94;5001480;28;20042;-74
2022/03/09 02:27:40;;;;;;;41.28;23.70;;;;;;;0.04;79.79;100782.50;5006559;28;20030;-73
2022/03/09 02:30:07;;;;;;;34.72;23.65;;;;;;;-0.03;79.88;100775.28;5005435;28;20041;-71
2022/03/09 02:32:40;;;;;;;37.03;24.63;;;;;;;0.20;79.20;100785.00;5000707;28;20238;-74
2022/03/09 02:35:05;;;;;;;40.15;25.08;;;;;;;0.17;79.74;100800.34;5003222;28;20046;-72
2022/03/09 02:37:31;;;;;;;38.30;25.73;;;;;;;0.15;80.04;100794.22;5005034;28;20053;-73
2022/03/09 02:39:56;;;;;;;33.10;23.23;;;;;;;0.02;80.18;100780.66;5003142;28;20026;-73
2022/03/09 02:42:22;;;;;;;47.42;27.88;;;;;;;0.31;79.54;100788.09;5008914;28;20025;-73
2022/03/09 02:44:47;;;;;;;35.20;23.88;;;;;;;0.31;79.68;100784.66;5009259;28;20092;-73
2022/03/09 02:47:13;;;;;;;36.15;24.38;;;;;;;0.28;79.72;100787.06;5011113;28;20489;-73
2022/03/09 02:49:38;;;;;;;33.05;23.02;;;;;;;0.32;79.74;100786.41;5007039;28;20501;-73
2022/03/09 02:52:04;;;;;;;38.03;26.45;;;;;;;0.27;79.41;100787.88;5010316;28;20041;-73
2022/03/09 02:54:29;;;;;;;36.95;22.70;;;;;;;0.19;79.18;100783.25;5010799;28;20432;-72
2022/03/09 02:56:55;;;;;;;36.15;22.23;;;;;;;-0.06;80.36;100786.34;5010412;28;20033;-73
2022/03/09 02:59:20;;;;;;;36.45;24.88;;;;;;;-0.30;80.98;100782.56;5010638;28;20379;-73
2022/03/09 03:01:46;;;;;;;37.70;22.02;;;;;;;-0.33;81.73;100788.47;5010037;28;20481;-73
2022/03/09 03:04:11;;;;;;;36.55;23.80;;;;;;;-0.16;81.79;100788.41;5010556;28;20042;-72
2022/03/09 03:06:37;;;;;;;38.67;23.02;;;;;;;-0.32;81.63;100784.19;5006910;28;20038;-73
2022/03/09 03:09:02;;;;;;;35.88;23.25;;;;;;;-0.45;81.88;100791.28;5008549;28;20033;-73
2022/03/09 03:11:28;;;;;;;46.35;34.35;;;;;;;-0.60;82.25;100785.38;5007853;28;20064;-72
2022/03/09 03:13:53;;;;;;;31.27;19.65;;;;;;;-0.19;81.69;100789.13;5007665;28;20583;-72
2022/03/09 03:16:21;;;;;;;33.55;21.48;;;;;;;-0.06;80.97;100768.28;5010417;28;20065;-73
2022/03/09 03:18:47;;;;;;;34.28;21.00;;;;;;;-0.10;81.35;100787.00;5002503;28;20037;-73
2022/03/09 03:21:13;;;;;;;54.28;31.40;;;;;;;-0.74;82.74;100791.50;5032781;28;20085;-73
2022/03/09 03:23:38;;;;;;;56.28;32.50;;;;;;;-0.57;83.29;100788.09;5010360;28;20045;-74
2022/03/09 03:26:05;;;;;;;51.47;32.42;;;;;;;-0.49;82.73;100784.22;5007367;28;20053;-73
2022/03/09 03:28:31;;;;;;;43.90;25.90;;;;;;;-1.00;84.36;100791.03;5006393;28;20053;-73
2022/03/09 03:30:57;;;;;;;60.60;40.72;;;;;;;-1.13;85.53;100781.78;5004294;28;20125;-73
2022/03/09 03:33:23;;;;;;;37.13;24.98;;;;;;;-0.91;85.50;100781.22;5006109;28;20188;-73
2022/03/09 03:35:49;;;;;;;43.75;24.33;;;;;;;-0.87;85.34;100797.69;5008546;28;20041;-73
2022/03/09 03:38:15;;;;;;;33.30;23.88;;;;;;;-1.29;86.20;100803.25;5009009;28;20058;-73
2022/03/09 03:40:42;;;;;;;40.92;23.00;;;;;;;-1.52;86.80;100821.72;5005403;28;20402;-73
2022/03/09 03:43:07;;;;;;;41.80;23.70;;;;;;;-1.60;87.52;100838.41;5006975;28;20049;-73
2022/03/09 03:45:33;;;;;;;36.90;21.15;;;;;;;-2.14;88.79;100843.06;5007682;28;20034;-72
2022/03/09 03:47:59;;;;;;;34.63;22.50;;;;;;;-2.23;89.29;100829.69;5008333;28;20026;-73
2022/03/09 03:50:24;;;;;;;28.10;19.60;;;;;;;-2.29;89.15;100845.66;5007343;28;20133;-72
2022/03/09 03:52:50;;;;;;;37.90;22.30;;;;;;;-2.30;89.37;100837.84;5005546;28;20453;-71
2022/03/09 03:55:15;;;;;;;39.30;24.42;;;;;;;-2.16;89.62;100842.09;5006972;28;20050;-72
2022/03/09 03:57:42;;;;;;;51.17;22.63;;;;;;;-2.27;89.71;100846.63;5007619;28;20037;-73
2022/03/09 04:00:09;;;;;;;37.63;21.17;;;;;;;-2.30;89.79;100835.28;5019135;28;20026;-72
2022/03/09 04:02:35;;;;;;;37.30;21.92;;;;;;;-2.27;89.19;100849.22;5008262;28;20038;-73
2022/03/09 04:05:01;;;;;;;36.60;24.08;;;;;;;-2.28;89.26;100849.97;5006383;28;20096;-73
2022/03/09 04:07:27;;;;;;;37.63;21.33;;;;;;;-2.16;89.32;100857.53;5009630;28;20124;-72
2022/03/09 04:09:53;;;;;;;32.67;21.02;;;;;;;-1.79;88.81;100851.94;5009215;28;20042;-73
2022/03/09 04:12:19;;;;;;;36.38;22.35;;;;;;;-1.80;88.00;100848.47;5008177;28;20490;-74
2022/03/09 04:14:44;;;;;;;36.50;22.30;;;;;;;-1.82;87.66;100841.47;5008756;28;20072;-75
2022/03/09 04:17:10;;;;;;;31.88;21.48;;;;;;;-1.92;87.98;100842.63;5007264;28;20054;-75
2022/03/09 04:19:37;;;;;;;35.20;23.98;;;;;;;-1.55;87.21;100847.25;5007735;28;20057;-73
2022/03/09 04:22:02;;;;;;;41.55;23.95;;;;;;;-1.52;86.88;100852.59;5005044;28;20050;-74
2022/03/09 04:24:38;;;;;;;41.33;20.92;;;;;;;-1.60;87.47;100843.56;5008954;28;20018;-74
2022/03/09 04:27:04;;;;;;;45.35;25.58;;;;;;;-1.06;86.38;100843.09;5008985;28;20092;-74
2022/03/09 04:29:29;;;;;;;38.85;22.67;;;;;;;-0.88;85.71;100832.00;5007993;28;20494;-74
2022/03/09 04:31:55;;;;;;;34.78;21.25;;;;;;;-0.62;85.33;100838.53;5004519;28;20116;-74
2022/03/09 04:34:21;;;;;;;36.05;19.30;;;;;;;-0.21;84.30;100839.75;5009871;28;20042;-72
2022/03/09 04:36:46;;;;;;;33.55;21.20;;;;;;;-0.30;84.06;100837.59;5007325;28;20390;-73
2022/03/09 04:39:12;;;;;;;32.35;18.00;;;;;;;-0.54;84.93;100839.81;5006996;28;20046;-71
2022/03/09 04:41:37;;;;;;;54.30;22.75;;;;;;;-0.53;85.19;100843.28;5005002;28;20049;-73
2022/03/09 04:44:03;;;;;;;33.05;18.90;;;;;;;-0.69;86.22;100836.44;5004665;28;20120;-72
2022/03/09 04:46:28;;;;;;;34.03;19.45;;;;;;;-0.33;85.76;100831.38;5007039;28;20052;-73
2022/03/09 04:48:54;;;;;;;32.08;17.00;;;;;;;-0.26;85.04;100844.69;5008985;28;20069;-72
2022/03/09 04:51:20;;;;;;;25.60;15.73;;;;;;;0.08;85.26;100845.47;5008900;28;20378;-72
2022/03/09 04:53:46;;;;;;;30.02;15.73;;;;;;;-0.06;84.96;100835.34;5005707;28;20125;-72
2022/03/09 04:56:11;;;;;;;23.38;14.50;;;;;;;-0.04;84.76;100846.63;5007544;28;20328;-75
2022/03/09 04:58:37;;;;;;;22.85;13.93;;;;;;;0.04;84.72;100851.28;5005948;28;20039;-72
2022/03/09 05:01:02;;;;;;;20.75;13.38;;;;;;;-0.05;84.66;100841.38;5007020;28;20564;-72
2022/03/09 05:03:27;;;;;;;19.33;11.75;;;;;;;-0.08;84.11;100856.72;5008023;28;20045;-71
2022/03/09 05:05:53;;;;;;;17.15;8.63;;;;;;;0.14;83.70;100850.91;5007495;28;20453;-72
2022/03/09 05:08:18;;;;;;;13.07;8.98;;;;;;;0.11;83.47;100846.47;5006575;28;20049;-72
2022/03/09 05:10:44;;;;;;;15.73;7.85;;;;;;;0.24;82.89;100853.16;5008375;28;20509;-73
2022/03/09 05:13:09;;;;;;;17.85;7.63;;;;;;;0.44;82.01;100859.25;5005672;28;20367;-75
2022/03/09 05:15:35;;;;;;;10.80;6.97;;;;;;;0.54;81.75;100855.41;5007046;28;20034;-72
2022/03/09 05:18:00;;;;;;;12.43;7.40;;;;;;;0.29;81.19;100854.25;5007637;28;20040;-75
2022/03/09 05:20:26;;;;;;;15.48;6.88;;;;;;;0.37;81.36;100859.78;5004961;28;20088;-74
2022/03/09 05:22:51;;;;;;;13.10;7.07;;;;;;;-0.36;81.52;100875.94;5006358;28;20037;-74
2022/03/09 05:25:17;;;;;;;16.05;7.15;;;;;;;0.16;82.12;100877.66;5006866;28;20525;-73
2022/03/09 05:27:44;;;;;;;10.52;5.53;;;;;;;0.07;81.17;100864.31;5006979;28;20037;-73
2022/03/09 05:30:09;;;;;;;6.57;4.40;;;;;;;-0.07;80.23;100869.69;5006131;28;20080;-72
2022/03/09 05:32:36;;;;;;;8.15;5.70;;;;;;;0.12;80.27;100870.63;5006877;28;20038;-74
2022/03/09 05:35:02;;;;;;;7.93;4.53;;;;;;;0.46;79.47;100873.13;5005927;28;20042;-74
2022/03/09 05:37:29;;;;;;;7.93;4.47;;;;;;;0.65;79.47;100885.22;5005064;28;20065;-73
2022/03/09 05:39:55;;;;;;;17.00;5.82;;;;;;;0.29;78.35;100882.63;5002291;28;20046;-75
2022/03/09 05:42:20;;;;;;;8.32;4.65;;;;;;;0.62;78.41;100890.22;5008598;28;20092;-75
2022/03/09 05:44:46;;;;;;;11.95;5.13;;;;;;;0.63;78.86;100890.31;5006518;28;20038;-74
2022/03/09 05:47:11;;;;;;;13.25;4.80;;;;;;;0.67;78.59;100904.25;5004458;28;20486;-75
2022/03/09 05:49:37;;;;;;;8.57;4.82;;;;;;;0.83;78.45;100906.75;5006354;28;20517;-75
2022/03/09 05:52:04;;;;;;;8.90;4.55;;;;;;;0.74;77.51;100895.97;5007995;28;20500;-75
2022/03/09 05:54:29;;;;;;;10.75;5.72;;;;;;;0.84;77.66;100899.88;5004442;28;20485;-75
2022/03/09 05:56:55;;;;;;;10.10;5.70;;;;;;;0.84;77.82;100892.13;5007385;28;20044;-74
2022/03/09 05:59:20;;;;;;;7.63;4.82;;;;;;;0.83;77.67;100895.53;5004814;28;20046;-75
2022/03/09 06:01:46;;;;;;;8.75;4.82;;;;;;;0.89;77.21;100902.66;5005308;28;20453;-75
2022/03/09 06:04:12;;;;;;;10.00;7.03;;;;;;;1.03;76.06;100887.03;5005843;28;20073;-74
2022/03/09 06:06:37;;;;;;;9.95;5.18;;;;;;;0.89;75.91;100889.75;5004440;28;20470;-74
2022/03/09 06:09:02;;;;;;;7.47;4.25;;;;;;;0.89;75.61;100902.66;5006124;28;20454;-74
2022/03/09 06:11:28;;;;;;;9.73;5.38;;;;;;;1.01;74.91;100913.59;5005753;28;20073;-75
2022/03/09 06:13:53;;;;;;;9.75;5.25;;;;;;;1.01;75.76;100888.63;5007029;28;20446;-75
2022/03/09 06:16:19;;;;;;;11.60;5.50;;;;;;;1.14;74.26;100897.81;5006465;28;20184;-74
2022/03/09 06:18:46;;;;;;;10.00;5.72;;;;;;;0.59;74.95;100893.56;5004343;28;20518;-74
2022/03/09 06:21:13;;;;;;;9.40;6.50;;;;;;;0.61;75.10;100907.44;5007019;28;20036;-74
2022/03/09 06:23:40;;;;;;;10.13;5.13;;;;;;;0.81;74.60;100916.13;5003712;28;20045;-75
2022/03/09 06:26:05;;;;;;;10.05;6.72;;;;;;;0.99;74.78;100926.44;5003390;28;20069;-75
2022/03/09 06:28:31;;;;;;;11.77;4.80;;;;;;;1.14;74.96;100925.38;5003243;28;20123;-75
2022/03/09 06:30:57;;;;;;;7.93;4.35;;;;;;;0.94;74.54;100930.50;5000119;28;20042;-74
2022/03/09 06:33:22;;;;;;;8.57;5.60;;;;;;;1.00;74.08;100943.69;5005762;28;20080;-74
2022/03/09 06:35:48;;;;;;;10.25;5.20;;;;;;;0.92;74.06;100921.78;5004065;28;20050;-74
2022/03/09 06:38:13;;;;;;;6.53;3.50;;;;;;;0.70;73.56;100930.22;5006423;28;20760;-74
2022/03/09 06:40:39;;;;;;;10.05;4.43;;;;;;;0.91;74.53;100942.38;5003124;28;20489;-73
2022/03/09 06:43:05;;;;;;;7.35;4.25;;;;;;;1.02;73.84;100942.06;5005290;28;20064;-74
2022/03/09 06:45:31;;;;;;;6.47;3.58;;;;;;;0.97;73.77;100943.56;5006278;28;20462;-74
2022/03/09 06:47:56;;;;;;;10.02;5.47;;;;;;;0.99;74.02;100941.06;5004967;28;20022;-74
2022/03/09 06:50:22;;;;;;;5.50;3.90;;;;;;;0.76;74.38;100948.59;5004956;28;20095;-75
2022/03/09 06:52:47;;;;;;;9.25;5.10;;;;;;;1.03;73.34;100951.63;5006830;28;20050;-74
2022/03/09 06:55:13;;;;;;;6.20;4.15;;;;;;;0.92;73.92;100942.47;5005214;28;20048;-74
2022/03/09 06:57:40;;;;;;;5.55;3.17;;;;;;;1.10;73.51;100955.38;5001631;28;20018;-74
2022/03/09 07:00:07;;;;;;;7.07;3.63;;;;;;;1.10;73.15;100960.53;5005751;28;20462;-74
2022/03/09 07:02:33;;;;;;;6.85;4.25;;;;;;;0.71;73.90;100944.91;5003451;28;20041;-74
2022/03/09 07:04:58;;;;;;;5.03;2.85;;;;;;;0.80;74.05;100959.97;5037830;28;20034;-74
2022/03/09 07:07:24;;;;;;;5.20;2.80;;;;;;;0.78;74.32;100946.09;5005364;28;20157;-75
2022/03/09 07:09:49;;;;;;;10.63;3.70;;;;;;;0.60;74.95;100959.00;5005921;28;20044;-74
2022/03/09 07:12:15;;;;;;;4.50;2.42;;;;;;;0.88;76.12;100958.63;5005891;28;20112;-75
2022/03/09 07:14:40;;;;;;;5.50;3.10;;;;;;;0.89;75.63;100967.25;5004816;28;20478;-75
2022/03/09 07:17:05;;;;;;;11.35;4.25;;;;;;;0.89;75.71;100964.66;5004463;28;20478;-75
2022/03/09 07:19:31;;;;;;;8.90;4.82;;;;;;;0.85;75.92;100974.00;5006502;28;20049;-74
2022/03/09 07:21:56;;;;;;;6.10;4.25;;;;;;;0.76;75.87;100970.97;5005688;28;20047;-74
2022/03/09 07:24:22;;;;;;;8.25;3.40;;;;;;;0.84;75.85;100972.19;5000153;28;20541;-74
2022/03/09 07:26:47;;;;;;;6.65;4.13;;;;;;;0.72;76.04;100975.06;5005622;28;20482;-75
2022/03/09 07:29:13;;;;;;;7.43;5.10;;;;;;;0.50;77.11;100967.09;5008459;28;20552;-75
2022/03/09 07:31:39;;;;;;;5.97;2.75;;;;;;;0.61;76.68;100969.41;5003772;28;20046;-75
2022/03/09 07:34:05;;;;;;;5.65;2.55;;;;;;;0.56;77.56;100968.31;5010568;28;20462;-74
2022/03/09 07:36:30;;;;;;;7.47;3.83;;;;;;;0.25;79.07;100971.03;5010569;28;20056;-74
2022/03/09 07:38:56;;;;;;;7.35;2.70;;;;;;;0.44;78.22;100962.50;5009936;28;20046;-76
2022/03/09 07:41:21;;;;;;;7.07;4.22;;;;;;;0.46;78.92;100976.38;5005871;28;20422;-77
2022/03/09 07:43:47;;;;;;;6.82;3.80;;;;;;;0.53;78.71;100977.56;5005364;28;20565;-78
2022/03/09 07:46:12;;;;;;;8.27;4.47;;;;;;;0.39;78.99;100967.44;5004120;28;20030;-77
2022/03/09 07:48:38;;;;;;;3.92;2.13;;;;;;;0.59;80.05;100968.44;5005718;28;20029;-77
2022/03/09 07:51:03;;;;;;;6.25;4.07;;;;;;;0.83;78.78;100981.66;5007499;28;20021;-77
2022/03/09 07:53:30;;;;;;;12.43;4.07;;;;;;;0.74;79.06;100980.31;5008977;28;20065;-77
2022/03/09 07:55:55;;;;;;;6.38;3.15;;;;;;;0.47;79.34;100966.94;5008364;28;20186;-77
2022/03/09 07:58:21;;;;;;;8.57;4.55;;;;;;;0.56;78.65;100972.56;5006795;28;20058;-77
2022/03/09 08:00:46;;;;;;;5.22;2.78;;;;;;;0.47;78.93;100980.75;5006586;28;20045;-76
2022/03/09 08:03:12;;;;;;;10.90;4.18;;;;;;;-0.21;79.13;100968.69;5007806;28;20032;-77
2022/03/09 08:05:37;;;;;;;6.82;3.25;;;;;;;-0.23;80.87;100983.19;5008355;28;20041;-78
2022/03/09 08:08:03;;;;;;;6.15;2.80;;;;;;;-0.57;80.40;100981.38;5009595;28;20038;-78
2022/03/09 08:10:29;;;;;;;8.38;3.03;;;;;;;0.21;80.59;100984.56;5006921;28;20046;-76
2022/03/09 08:12:55;;;;;;;5.18;3.28;;;;;;;0.09;80.56;100981.38;5004905;28;20500;-77
2022/03/09 08:15:20;;;;;;;7.03;2.72;;;;;;;0.02;80.23;100976.72;5006662;28;20029;-77
2022/03/09 08:17:46;;;;;;;7.68;2.63;;;;;;;-0.12;79.81;100986.31;5002988;28;20074;-77
2022/03/09 08:20:12;;;;;;;4.30;2.03;;;;;;;-0.19;80.20;100990.25;5006144;28;20042;-77
2022/03/09 08:22:39;;;;;;;6.88;3.10;;;;;;;0.19;79.73;100970.75;5005127;28;20034;-79
2022/03/09 08:25:05;;;;;;;4.35;2.53;;;;;;;0.33;79.82;100981.75;5004999;28;20104;-77
2022/03/09 08:27:31;;;;;;;12.23;3.75;;;;;;;0.18;80.24;100982.72;5003033;28;20046;-77
2022/03/09 08:29:57;;;;;;;5.93;2.92;;;;;;;0.13;79.99;100986.78;5007204;28;20546;-76
2022/03/09 08:32:23;;;;;;;5.50;3.55;;;;;;;0.20;80.45;100986.28;5001727;28;20060;-72
2022/03/09 08:34:48;;;;;;;6.55;2.90;;;;;;;0.28;80.60;100973.78;5003095;28;20041;-74
2022/03/09 08:37:14;;;;;;;5.60;3.40;;;;;;;-0.05;80.08;100979.00;5004131;28;20048;-73
2022/03/09 08:39:43;;;;;;;6.45;3.53;;;;;;;-0.04;80.12;100997.94;5002422;28;20132;-73
2022/03/09 08:42:09;;;;;;;6.25;3.20;;;;;;;0.23;80.74;100982.09;5004458;28;20481;-73
2022/03/09 08:44:34;;;;;;;7.68;3.08;;;;;;;0.28;81.70;100997.00;5005598;28;20469;-73
2022/03/09 08:47:00;;;;;;;6.10;3.65;;;;;;;0.15;81.23;101008.38;5003143;28;20061;-74
2022/03/09 08:49:25;;;;;;;8.88;5.35;;;;;;;0.17;80.90;101013.63;5004270;28;20042;-74
2022/03/09 08:51:51;;;;;;;6.65;3.45;;;;;;;-0.04;82.14;101003.09;5006244;28;20046;-72
2022/03/09 08:54:16;;;;;;;12.75;3.65;;;;;;;0.37;80.97;101014.63;5007302;28;20505;-73
2022/03/09 08:56:42;;;;;;;7.30;4.18;;;;;;;0.02;80.12;101012.84;5004580;28;20104;-73
2022/03/09 08:59:07;;;;;;;8.80;3.92;;;;;;;-0.19;79.37;101005.72;5006202;28;20057;-72
2022/03/09 09:01:32;;;;;;;7.93;4.10;;;;;;;-0.59;79.90;101021.63;5003036;28;20061;-71
2022/03/09 09:03:59;;;;;;;6.30;3.00;;;;;;;-1.07;81.86;101026.75;5005815;28;20046;-72
2022/03/09 09:06:25;;;;;;;5.90;2.83;;;;;;;-1.33;82.64;101029.53;5003463;28;20064;-73
2022/03/09 09:08:50;;;;;;;6.35;3.17;;;;;;;-1.38;82.86;101013.81;5004574;28;20077;-73
2022/03/09 09:11:16;;;;;;;9.00;4.18;;;;;;;-0.36;82.26;101024.59;5005394;28;20062;-75
2022/03/09 09:13:41;;;;;;;8.00;2.35;;;;;;;-0.56;81.40;101029.56;5005528;28;20057;-73
2022/03/09 09:16:07;;;;;;;6.32;4.38;;;;;;;-0.31;81.09;101031.75;5002158;28;20037;-72
2022/03/09 09:18:32;;;;;;;6.03;3.42;;;;;;;0.06;81.18;101020.81;5014013;28;20022;-72
2022/03/09 09:20:59;;;;;;;8.18;3.45;;;;;;;-0.70;80.60;101017.63;5004715;28;20061;-72
2022/03/09 09:23:25;;;;;;;7.20;3.22;;;;;;;-0.49;82.64;101035.94;5004074;28;20034;-75
2022/03/09 09:25:50;;;;;;;10.60;3.97;;;;;;;-0.06;81.41;101036.53;5004126;28;20373;-72
2022/03/09 09:28:17;;;;;;;6.72;5.30;;;;;;;-0.03;81.95;101010.88;5005037;28;20046;-74
2022/03/09 09:30:43;;;;;;;7.38;3.22;;;;;;;0.04;81.54;101037.03;5000436;28;20029;-74
2022/03/09 09:33:09;;;;;;;5.90;3.38;;;;;;;0.16;81.10;101025.66;5003315;28;20041;-73
2022/03/09 09:35:34;;;;;;;7.68;4.75;;;;;;;-0.18;82.13;101037.59;5004056;28;20054;-72
2022/03/09 09:38:06;;;;;;;10.15;4.50;;;;;;;-0.86;82.03;101042.50;4997363;28;20129;-73
2022/03/09 09:40:40;;;;;;;10.10;4.60;;;;;;;-0.48;85.22;101035.13;4993482;28;20510;-73
2022/03/09 09:43:10;;;;;;;9.57;3.90;;;;;;;0.03;82.98;101028.41;5003929;28;20089;-72
2022/03/09 09:45:36;;;;;;;7.45;3.97;;;;;;;-0.32;84.02;101034.28;5003735;28;20038;-73
2022/03/09 09:48:03;;;;;;;6.63;3.45;;;;;;;0.23;82.95;101049.19;5006097;28;20026;-73
2022/03/09 09:50:30;;;;;;;7.70;4.13;;;;;;;0.33;82.01;101043.72;5002927;28;20045;-73
2022/03/09 09:52:56;;;;;;;10.30;4.82;;;;;;;0.29;80.48;101046.94;4983655;28;20160;-73
2022/03/09 09:55:26;;;;;;;11.80;7.65;;;;;;;0.31;80.48;101035.88;5003991;28;20508;-73
2022/03/09 09:57:51;;;;;;;6.50;4.07;;;;;;;0.20;81.14;101039.59;5005702;28;20048;-73
2022/03/09 10:00:17;;;;;;;10.43;4.25;;;;;;;0.10;80.59;101032.19;5002625;28;20038;-74
2022/03/09 10:02:43;;;;;;;6.68;4.32;;;;;;;-0.33;81.62;101035.97;5005249;28;20073;-73
2022/03/09 10:05:14;;;;;;;7.57;3.72;;;;;;;0.00;80.69;101046.31;5003748;28;20060;-73
2022/03/09 10:08:04;;;;;;;14.02;4.75;;;;;;;-0.06;81.44;101041.69;5001245;28;20038;-73
2022/03/09 10:10:34;;;;;;;11.98;4.30;;;;;;;0.09;80.95;101033.84;5000670;28;20052;-73
2022/03/09 10:13:13;;;;;;;11.02;3.75;;;;;;;0.45;78.76;101046.03;5002077;28;20424;-72
2022/03/09 10:15:41;;;;;;;7.25;4.25;;;;;;;0.43;78.63;101038.19;5004383;28;20033;-72
2022/03/09 10:18:22;;;;;;;5.85;3.83;;;;;;;0.49;78.49;101030.78;5004958;28;20148;-71
2022/03/09 10:20:50;;;;;;;7.70;3.67;;;;;;;0.60;75.69;101036.47;5004111;28;20144;-71
2022/03/09 10:23:17;;;;;;;7.53;4.28;;;;;;;0.38;76.72;101050.88;5002355;28;20124;-72
2022/03/09 10:25:43;;;;;;;7.82;4.72;;;;;;;0.68;76.88;101044.56;5004405;28;20132;-73
2022/03/09 10:28:11;;;;;;;10.07;3.53;;;;;;;0.38;77.74;101040.53;5002154;28;20045;-73
2022/03/09 10:30:39;;;;;;;11.80;5.10;;;;;;;0.60;76.89;101046.78;4998519;28;20034;-73
2022/03/09 10:33:12;;;;;;;9.50;4.88;;;;;;;0.69;77.17;101046.38;5001232;28;20054;-73
2022/03/09 10:35:42;;;;;;;10.43;6.93;;;;;;;0.90;77.51;101036.22;5003978;28;20054;-73
2022/03/09 10:38:14;;;;;;;14.30;3.55;;;;;;;1.35;75.28;101046.97;5002455;28;20134;-73
2022/03/09 10:40:46;;;;;;;7.60;4.20;;;;;;;1.41;74.02;101040.41;5002556;28;20041;-73
2022/03/09 10:43:13;;;;;;;7.78;5.55;;;;;;;1.30;73.00;101044.19;5002683;28;20475;-73
2022/03/09 10:46:11;;;;;;;8.13;4.68;;;;;;;1.30;73.13;101049.34;5003888;28;20496;-73
2022/03/09 10:48:57;;;;;;;7.93;3.65;;;;;;;1.59;74.33;101040.38;5002890;28;20037;-73
2022/03/09 10:51:35;;;;;;;6.93;4.22;;;;;;;1.52;71.89;101037.41;5004369;28;20502;-73
2022/03/09 10:54:09;;;;;;;11.63;6.05;;;;;;;1.40;73.53;101020.53;5003266;28;20053;-73
2022/03/09 10:56:36;;;;;;;10.25;5.40;;;;;;;1.47;72.51;101026.88;5004983;28;20108;-73
2022/03/09 10:59:17;;;;;;;11.40;4.10;;;;;;;1.52;71.16;101043.47;5005805;28;20048;-74
2022/03/09 11:02:00;;;;;;;6.80;4.05;;;;;;;1.67;71.37;101041.63;5005690;28;20128;-72
2022/03/09 11:04:25;;;;;;;7.32;4.57;;;;;;;1.80;70.11;101026.63;5006530;28;20084;-72
2022/03/09 11:06:51;;;;;;;9.63;4.30;;;;;;;1.69;70.64;101026.19;5008977;28;20569;-73
2022/03/09 11:09:19;;;;;;;10.55;4.80;;;;;;;1.93;69.75;101039.31;5007206;28;20052;-72
2022/03/09 11:11:46;;;;;;;7.30;3.45;;;;;;;1.37;69.85;101038.47;5009138;28;20049;-74
2022/03/09 11:14:14;;;;;;;7.80;5.40;;;;;;;1.75;68.32;101028.13;5006093;28;20062;-76
2022/03/09 11:16:41;;;;;;;7.15;4.95;;;;;;;0.87;68.71;101036.94;5007763;28;20053;-76
2022/03/09 11:19:07;;;;;;;9.30;6.43;;;;;;;1.55;68.54;101035.88;5006395;28;20398;-73